sensor_id;sensor_type;location;lat;lon;timestamp;P1;durP1;ratioP1;P2;durP2;ratioP2
17259;SDS011;8746;49.230;9.220;2024-01-27T00:00:10;8.83;;;5.93;;
17259;SDS011;8746;49.230;9.220;2024-01-27T00:02:36;10.47;;;5.90;;
17259;SDS011;8746;49.230;9.220;2024-01-27T00:05:01;11.83;;;7.63;;
17259;SDS011;8746;49.230;9.220;2024-01-27T00:07:27;11.17;;;7.60;;
17259;SDS011;8746;49.230;9.220;2024-01-27T00:09:53;9.03;;;7.93;;
17259;SDS011;8746;49.230;9.220;2024-01-27T00:12:24;10.30;;;7.77;;
17259;SDS011;8746;49.230;9.220;2024-01-27T00:14:49;10.30;;;7.77;;
17259;SDS011;8746;49.230;9.220;2024-01-27T00:17:15;12.43;;;8.00;;
17259;SDS011;8746;49.230;9.220;2024-01-27T00:19:40;11.90;;;6.77;;
17259;SDS011;8746;49.230;9.220;2024-01-27T00:22:07;11.30;;;6.60;;
17259;SDS011;8746;49.230;9.220;2024-01-27T00:24:33;8.27;;;6.40;;
17259;SDS011;8746;49.230;9.220;2024-01-27T00:26:58;11.00;;;7.47;;
17259;SDS011;8746;49.230;9.220;2024-01-27T00:29:23;10.90;;;6.77;;
17259;SDS011;8746;49.230;9.220;2024-01-27T00:31:49;9.57;;;6.77;;
17259;SDS011;8746;49.230;9.220;2024-01-27T00:34:15;10.40;;;7.20;;
17259;SDS011;8746;49.230;9.220;2024-01-27T00:36:41;9.77;;;7.50;;
17259;SDS011;8746;49.230;9.220;2024-01-27T00:39:13;14.40;;;7.53;;
17259;SDS011;8746;49.230;9.220;2024-01-27T00:41:39;13.50;;;8.10;;
17259;SDS011;8746;49.230;9.220;2024-01-27T00:44:04;10.20;;;7.20;;
17259;SDS011;8746;49.230;9.220;2024-01-27T00:46:30;10.07;;;7.27;;
17259;SDS011;8746;49.230;9.220;2024-01-27T00:48:55;7.73;;;6.27;;
17259;SDS011;8746;49.230;9.220;2024-01-27T00:51:20;8.53;;;6.73;;
17259;SDS011;8746;49.230;9.220;2024-01-27T00:53:46;9.83;;;7.20;;
17259;SDS011;8746;49.230;9.220;2024-01-27T00:56:11;9.80;;;6.63;;
17259;SDS011;8746;49.230;9.220;2024-01-27T00:58:36;10.63;;;7.30;;
17259;SDS011;8746;49.230;9.220;2024-01-27T01:01:02;11.17;;;7.53;;
17259;SDS011;8746;49.230;9.220;2024-01-27T01:03:27;11.70;;;7.23;;
17259;SDS011;8746;49.230;9.220;2024-01-27T01:05:52;10.90;;;7.27;;
17259;SDS011;8746;49.230;9.220;2024-01-27T01:08:18;10.63;;;7.43;;
17259;SDS011;8746;49.230;9.220;2024-01-27T01:10:43;10.87;;;7.13;;
17259;SDS011;8746;49.230;9.220;2024-01-27T01:13:09;10.63;;;7.73;;
17259;SDS011;8746;49.230;9.220;2024-01-27T01:15:34;11.63;;;7.53;;
17259;SDS011;8746;49.230;9.220;2024-01-27T01:18:00;10.60;;;8.53;;
17259;SDS011;8746;49.230;9.220;2024-01-27T01:20:25;11.80;;;7.90;;
17259;SDS011;8746;49.230;9.220;2024-01-27T01:22:52;11.03;;;7.30;;
17259;SDS011;8746;49.230;9.220;2024-01-27T01:25:17;11.60;;;7.77;;
17259;SDS011;8746;49.230;9.220;2024-01-27T01:27:43;10.57;;;7.07;;
17259;SDS011;8746;49.230;9.220;2024-01-27T01:30:10;11.33;;;7.83;;
17259;SDS011;8746;49.230;9.220;2024-01-27T01:32:35;13.70;;;7.50;;
17259;SDS011;8746;49.230;9.220;2024-01-27T01:35:01;9.07;;;7.40;;
17259;SDS011;8746;49.230;9.220;2024-01-27T01:37:26;9.07;;;7.37;;
17259;SDS011;8746;49.230;9.220;2024-01-27T01:39:51;9.50;;;7.30;;
17259;SDS011;8746;49.230;9.220;2024-01-27T01:42:16;9.37;;;7.07;;
17259;SDS011;8746;49.230;9.220;2024-01-27T01:44:42;10.83;;;6.93;;
17259;SDS011;8746;49.230;9.220;2024-01-27T01:47:07;9.67;;;7.30;;
17259;SDS011;8746;49.230;9.220;2024-01-27T01:49:33;11.30;;;7.60;;
17259;SDS011;8746;49.230;9.220;2024-01-27T01:51:58;10.50;;;7.53;;
17259;SDS011;8746;49.230;9.220;2024-01-27T01:54:24;10.50;;;8.20;;
17259;SDS011;8746;49.230;9.220;2024-01-27T01:56:52;10.63;;;7.73;;
17259;SDS011;8746;49.230;9.220;2024-01-27T01:59:19;10.80;;;7.40;;
17259;SDS011;8746;49.230;9.220;2024-01-27T02:01:45;9.17;;;6.63;;
17259;SDS011;8746;49.230;9.220;2024-01-27T02:04:10;11.93;;;7.27;;
17259;SDS011;8746;49.230;9.220;2024-01-27T02:06:36;9.40;;;6.93;;
17259;SDS011;8746;49.230;9.220;2024-01-27T02:09:01;8.00;;;6.93;;
17259;SDS011;8746;49.230;9.220;2024-01-27T02:11:26;10.47;;;7.33;;
17259;SDS011;8746;49.230;9.220;2024-01-27T02:13:52;11.90;;;7.03;;
17259;SDS011;8746;49.230;9.220;2024-01-27T02:16:17;9.07;;;7.43;;
17259;SDS011;8746;49.230;9.220;2024-01-27T02:18:43;10.50;;;7.73;;
17259;SDS011;8746;49.230;9.220;2024-01-27T02:21:08;10.20;;;6.97;;
17259;SDS011;8746;49.230;9.220;2024-01-27T02:23:34;9.07;;;6.97;;
17259;SDS011;8746;49.230;9.220;2024-01-27T02:25:59;8.70;;;6.10;;
17259;SDS011;8746;49.230;9.220;2024-01-27T02:28:24;10.60;;;6.50;;
17259;SDS011;8746;49.230;9.220;2024-01-27T02:30:50;9.17;;;6.23;;
17259;SDS011;8746;49.230;9.220;2024-01-27T02:33:15;7.33;;;6.00;;
17259;SDS011;8746;49.230;9.220;2024-01-27T02:35:41;6.40;;;5.80;;
17259;SDS011;8746;49.230;9.220;2024-01-27T02:38:08;6.17;;;5.50;;
17259;SDS011;8746;49.230;9.220;2024-01-27T02:40:34;6.63;;;5.70;;
17259;SDS011;8746;49.230;9.220;2024-01-27T02:42:59;6.83;;;5.83;;
17259;SDS011;8746;49.230;9.220;2024-01-27T02:45:24;6.10;;;5.50;;
17259;SDS011;8746;49.230;9.220;2024-01-27T02:47:50;6.83;;;6.13;;
17259;SDS011;8746;49.230;9.220;2024-01-27T02:50:15;6.63;;;5.93;;
17259;SDS011;8746;49.230;9.220;2024-01-27T02:52:40;7.07;;;6.30;;
17259;SDS011;8746;49.230;9.220;2024-01-27T02:55:06;10.03;;;6.10;;
17259;SDS011;8746;49.230;9.220;2024-01-27T02:57:32;6.83;;;6.13;;
17259;SDS011;8746;49.230;9.220;2024-01-27T02:59:57;7.67;;;6.37;;
17259;SDS011;8746;49.230;9.220;2024-01-27T03:02:22;7.73;;;6.87;;
17259;SDS011;8746;49.230;9.220;2024-01-27T03:04:48;8.23;;;6.30;;
17259;SDS011;8746;49.230;9.220;2024-01-27T03:07:13;7.70;;;6.77;;
17259;SDS011;8746;49.230;9.220;2024-01-27T03:09:39;8.70;;;6.60;;
17259;SDS011;8746;49.230;9.220;2024-01-27T03:12:04;7.90;;;6.67;;
17259;SDS011;8746;49.230;9.220;2024-01-27T03:14:30;7.23;;;6.53;;
17259;SDS011;8746;49.230;9.220;2024-01-27T03:16:55;8.50;;;6.70;;
17259;SDS011;8746;49.230;9.220;2024-01-27T03:19:20;8.13;;;6.53;;
17259;SDS011;8746;49.230;9.220;2024-01-27T03:21:46;7.97;;;6.87;;
17259;SDS011;8746;49.230;9.220;2024-01-27T03:24:11;7.80;;;6.80;;
17259;SDS011;8746;49.230;9.220;2024-01-27T03:26:37;10.20;;;6.60;;
17259;SDS011;8746;49.230;9.220;2024-01-27T03:29:05;7.77;;;6.37;;
17259;SDS011;8746;49.230;9.220;2024-01-27T03:31:30;8.17;;;6.37;;
17259;SDS011;8746;49.230;9.220;2024-01-27T03:33:56;7.17;;;6.40;;
17259;SDS011;8746;49.230;9.220;2024-01-27T03:36:23;7.10;;;6.40;;
17259;SDS011;8746;49.230;9.220;2024-01-27T03:38:49;7.83;;;5.87;;
17259;SDS011;8746;49.230;9.220;2024-01-27T03:41:14;8.30;;;6.07;;
17259;SDS011;8746;49.230;9.220;2024-01-27T03:43:39;10.10;;;6.83;;
17259;SDS011;8746;49.230;9.220;2024-01-27T03:46:05;7.57;;;6.70;;
17259;SDS011;8746;49.230;9.220;2024-01-27T03:48:30;10.10;;;7.00;;
17259;SDS011;8746;49.230;9.220;2024-01-27T03:50:55;15.87;;;9.33;;
17259;SDS011;8746;49.230;9.220;2024-01-27T03:53:21;10.77;;;8.73;;
17259;SDS011;8746;49.230;9.220;2024-01-27T03:55:46;10.87;;;7.53;;
17259;SDS011;8746;49.230;9.220;2024-01-27T03:58:12;10.97;;;7.97;;
17259;SDS011;8746;49.230;9.220;2024-01-27T04:00:37;12.03;;;7.37;;
17259;SDS011;8746;49.230;9.220;2024-01-27T04:03:03;8.50;;;6.27;;
17259;SDS011;8746;49.230;9.220;2024-01-27T04:05:29;9.20;;;6.53;;
17259;SDS011;8746;49.230;9.220;2024-01-27T04:07:55;7.00;;;6.30;;
17259;SDS011;8746;49.230;9.220;2024-01-27T04:10:21;8.83;;;6.10;;
17259;SDS011;8746;49.230;9.220;2024-01-27T04:12:47;9.70;;;6.90;;
17259;SDS011;8746;49.230;9.220;2024-01-27T04:15:12;7.50;;;6.70;;
17259;SDS011;8746;49.230;9.220;2024-01-27T04:17:38;10.93;;;6.60;;
17259;SDS011;8746;49.230;9.220;2024-01-27T04:20:05;7.43;;;6.27;;
17259;SDS011;8746;49.230;9.220;2024-01-27T04:22:32;7.90;;;7.13;;
17259;SDS011;8746;49.230;9.220;2024-01-27T04:24:58;9.53;;;6.90;;
17259;SDS011;8746;49.230;9.220;2024-01-27T04:27:23;8.40;;;5.93;;
17259;SDS011;8746;49.230;9.220;2024-01-27T04:29:48;8.50;;;7.30;;
17259;SDS011;8746;49.230;9.220;2024-01-27T04:32:14;8.80;;;7.17;;
17259;SDS011;8746;49.230;9.220;2024-01-27T04:34:40;7.73;;;6.70;;
17259;SDS011;8746;49.230;9.220;2024-01-27T04:37:05;9.07;;;7.27;;
17259;SDS011;8746;49.230;9.220;2024-01-27T04:39:31;8.47;;;7.23;;
17259;SDS011;8746;49.230;9.220;2024-01-27T04:41:56;10.10;;;7.50;;
17259;SDS011;8746;49.230;9.220;2024-01-27T04:44:21;10.87;;;7.57;;
17259;SDS011;8746;49.230;9.220;2024-01-27T04:46:47;11.27;;;7.30;;
17259;SDS011;8746;49.230;9.220;2024-01-27T04:49:13;11.77;;;8.00;;
17259;SDS011;8746;49.230;9.220;2024-01-27T04:51:39;9.77;;;7.73;;
17259;SDS011;8746;49.230;9.220;2024-01-27T04:54:04;10.93;;;8.20;;
17259;SDS011;8746;49.230;9.220;2024-01-27T04:56:30;11.80;;;7.97;;
17259;SDS011;8746;49.230;9.220;2024-01-27T04:58:55;10.93;;;7.73;;
17259;SDS011;8746;49.230;9.220;2024-01-27T05:01:20;11.17;;;7.50;;
17259;SDS011;8746;49.230;9.220;2024-01-27T05:03:46;9.60;;;7.00;;
17259;SDS011;8746;49.230;9.220;2024-01-27T05:06:12;13.77;;;7.33;;
17259;SDS011;8746;49.230;9.220;2024-01-27T05:08:38;10.43;;;6.20;;
17259;SDS011;8746;49.230;9.220;2024-01-27T05:11:03;10.10;;;5.73;;
17259;SDS011;8746;49.230;9.220;2024-01-27T05:13:29;10.37;;;6.87;;
17259;SDS011;8746;49.230;9.220;2024-01-27T05:15:54;12.10;;;6.63;;
17259;SDS011;8746;49.230;9.220;2024-01-27T05:18:20;8.97;;;6.10;;
17259;SDS011;8746;49.230;9.220;2024-01-27T05:20:45;8.27;;;5.80;;
17259;SDS011;8746;49.230;9.220;2024-01-27T05:23:11;7.57;;;6.27;;
17259;SDS011;8746;49.230;9.220;2024-01-27T05:25:36;9.03;;;5.97;;
17259;SDS011;8746;49.230;9.220;2024-01-27T05:28:01;10.50;;;5.43;;
17259;SDS011;8746;49.230;9.220;2024-01-27T05:30:27;8.87;;;6.50;;
17259;SDS011;8746;49.230;9.220;2024-01-27T05:32:52;8.37;;;5.97;;
17259;SDS011;8746;49.230;9.220;2024-01-27T05:35:17;7.17;;;6.20;;
17259;SDS011;8746;49.230;9.220;2024-01-27T05:37:42;8.57;;;6.37;;
17259;SDS011;8746;49.230;9.220;2024-01-27T05:40:08;7.47;;;6.10;;
17259;SDS011;8746;49.230;9.220;2024-01-27T05:42:34;8.07;;;5.73;;
17259;SDS011;8746;49.230;9.220;2024-01-27T05:45:00;7.40;;;5.50;;
17259;SDS011;8746;49.230;9.220;2024-01-27T05:47:25;6.40;;;5.47;;
17259;SDS011;8746;49.230;9.220;2024-01-27T05:49:51;6.93;;;5.70;;
17259;SDS011;8746;49.230;9.220;2024-01-27T05:52:16;6.60;;;5.80;;
17259;SDS011;8746;49.230;9.220;2024-01-27T05:54:41;10.60;;;5.87;;
17259;SDS011;8746;49.230;9.220;2024-01-27T05:57:07;6.90;;;5.37;;
17259;SDS011;8746;49.230;9.220;2024-01-27T05:59:32;6.07;;;5.47;;
17259;SDS011;8746;49.230;9.220;2024-01-27T06:01:57;6.37;;;5.43;;
17259;SDS011;8746;49.230;9.220;2024-01-27T06:04:23;6.53;;;5.43;;
17259;SDS011;8746;49.230;9.220;2024-01-27T06:06:48;6.40;;;5.13;;
17259;SDS011;8746;49.230;9.220;2024-01-27T06:09:14;6.90;;;5.07;;
17259;SDS011;8746;49.230;9.220;2024-01-27T06:11:39;8.00;;;5.73;;
17259;SDS011;8746;49.230;9.220;2024-01-27T06:14:04;5.90;;;5.27;;
17259;SDS011;8746;49.230;9.220;2024-01-27T06:16:30;7.83;;;6.10;;
17259;SDS011;8746;49.230;9.220;2024-01-27T06:18:55;7.93;;;6.20;;
17259;SDS011;8746;49.230;9.220;2024-01-27T06:21:21;7.63;;;6.17;;
17259;SDS011;8746;49.230;9.220;2024-01-27T06:23:46;9.50;;;6.33;;
17259;SDS011;8746;49.230;9.220;2024-01-27T06:26:12;10.07;;;7.23;;
17259;SDS011;8746;49.230;9.220;2024-01-27T06:28:38;8.73;;;7.47;;
17259;SDS011;8746;49.230;9.220;2024-01-27T06:31:04;11.53;;;8.30;;
17259;SDS011;8746;49.230;9.220;2024-01-27T06:33:29;10.13;;;8.37;;
17259;SDS011;8746;49.230;9.220;2024-01-27T06:35:55;10.30;;;8.30;;
17259;SDS011;8746;49.230;9.220;2024-01-27T06:38:20;8.97;;;7.30;;
17259;SDS011;8746;49.230;9.220;2024-01-27T06:40:46;9.23;;;7.40;;
17259;SDS011;8746;49.230;9.220;2024-01-27T06:43:12;9.77;;;7.23;;
17259;SDS011;8746;49.230;9.220;2024-01-27T06:45:38;9.37;;;7.20;;
17259;SDS011;8746;49.230;9.220;2024-01-27T06:48:04;10.50;;;7.10;;
17259;SDS011;8746;49.230;9.220;2024-01-27T06:50:30;7.27;;;5.80;;
17259;SDS011;8746;49.230;9.220;2024-01-27T06:52:55;7.37;;;5.60;;
17259;SDS011;8746;49.230;9.220;2024-01-27T06:55:20;6.37;;;5.47;;
17259;SDS011;8746;49.230;9.220;2024-01-27T06:57:46;7.60;;;5.60;;
17259;SDS011;8746;49.230;9.220;2024-01-27T07:00:11;9.27;;;6.47;;
17259;SDS011;8746;49.230;9.220;2024-01-27T07:02:39;6.87;;;6.00;;
17259;SDS011;8746;49.230;9.220;2024-01-27T07:05:06;6.47;;;5.70;;
17259;SDS011;8746;49.230;9.220;2024-01-27T07:07:33;8.23;;;6.07;;
17259;SDS011;8746;49.230;9.220;2024-01-27T07:09:58;8.97;;;6.90;;
17259;SDS011;8746;49.230;9.220;2024-01-27T07:12:24;10.37;;;8.03;;
17259;SDS011;8746;49.230;9.220;2024-01-27T07:14:49;11.57;;;7.80;;
17259;SDS011;8746;49.230;9.220;2024-01-27T07:17:16;14.20;;;9.73;;
17259;SDS011;8746;49.230;9.220;2024-01-27T07:19:41;13.03;;;9.77;;
17259;SDS011;8746;49.230;9.220;2024-01-27T07:22:06;23.73;;;16.27;;
17259;SDS011;8746;49.230;9.220;2024-01-27T07:24:32;30.67;;;15.23;;
17259;SDS011;8746;49.230;9.220;2024-01-27T07:26:59;41.00;;;14.20;;
17259;SDS011;8746;49.230;9.220;2024-01-27T07:29:25;29.87;;;14.83;;
17259;SDS011;8746;49.230;9.220;2024-01-27T07:31:51;65.00;;;15.13;;
17259;SDS011;8746;49.230;9.220;2024-01-27T07:34:16;43.70;;;15.40;;
17259;SDS011;8746;49.230;9.220;2024-01-27T07:36:41;48.10;;;15.10;;
17259;SDS011;8746;49.230;9.220;2024-01-27T07:39:07;34.33;;;12.40;;
17259;SDS011;8746;49.230;9.220;2024-01-27T07:41:32;57.70;;;14.63;;
17259;SDS011;8746;49.230;9.220;2024-01-27T07:44:06;32.80;;;13.07;;
17259;SDS011;8746;49.230;9.220;2024-01-27T07:46:32;44.33;;;14.20;;
17259;SDS011;8746;49.230;9.220;2024-01-27T07:48:57;30.87;;;12.57;;
17259;SDS011;8746;49.230;9.220;2024-01-27T07:51:23;47.77;;;12.97;;
17259;SDS011;8746;49.230;9.220;2024-01-27T07:53:48;28.10;;;11.83;;
17259;SDS011;8746;49.230;9.220;2024-01-27T07:56:13;20.90;;;12.87;;
17259;SDS011;8746;49.230;9.220;2024-01-27T07:58:39;25.53;;;13.10;;
17259;SDS011;8746;49.230;9.220;2024-01-27T08:01:04;26.43;;;11.70;;
17259;SDS011;8746;49.230;9.220;2024-01-27T08:03:29;40.17;;;11.77;;
17259;SDS011;8746;49.230;9.220;2024-01-27T08:05:55;14.90;;;11.60;;
17259;SDS011;8746;49.230;9.220;2024-01-27T08:08:21;21.93;;;14.67;;
17259;SDS011;8746;49.230;9.220;2024-01-27T08:10:46;20.87;;;13.40;;
17259;SDS011;8746;49.230;9.220;2024-01-27T08:13:11;26.10;;;18.13;;
17259;SDS011;8746;49.230;9.220;2024-01-27T08:15:37;18.13;;;13.10;;
17259;SDS011;8746;49.230;9.220;2024-01-27T08:18:02;20.33;;;13.93;;
17259;SDS011;8746;49.230;9.220;2024-01-27T08:20:27;17.07;;;13.27;;
17259;SDS011;8746;49.230;9.220;2024-01-27T08:22:53;21.93;;;13.43;;
17259;SDS011;8746;49.230;9.220;2024-01-27T08:25:18;15.33;;;11.50;;
17259;SDS011;8746;49.230;9.220;2024-01-27T08:27:44;14.27;;;11.17;;
17259;SDS011;8746;49.230;9.220;2024-01-27T08:30:09;14.27;;;10.83;;
17259;SDS011;8746;49.230;9.220;2024-01-27T08:32:35;12.53;;;10.90;;
17259;SDS011;8746;49.230;9.220;2024-01-27T08:35:01;13.97;;;11.00;;
17259;SDS011;8746;49.230;9.220;2024-01-27T08:37:26;13.17;;;10.97;;
17259;SDS011;8746;49.230;9.220;2024-01-27T08:39:52;24.27;;;14.20;;
17259;SDS011;8746;49.230;9.220;2024-01-27T08:42:17;16.63;;;12.90;;
17259;SDS011;8746;49.230;9.220;2024-01-27T08:44:43;19.03;;;13.83;;
17259;SDS011;8746;49.230;9.220;2024-01-27T08:47:08;27.50;;;17.97;;
17259;SDS011;8746;49.230;9.220;2024-01-27T08:49:33;22.13;;;17.23;;
17259;SDS011;8746;49.230;9.220;2024-01-27T08:51:59;20.10;;;16.37;;
17259;SDS011;8746;49.230;9.220;2024-01-27T08:54:24;17.77;;;14.77;;
17259;SDS011;8746;49.230;9.220;2024-01-27T08:56:50;15.87;;;13.07;;
17259;SDS011;8746;49.230;9.220;2024-01-27T08:59:15;20.53;;;13.83;;
17259;SDS011;8746;49.230;9.220;2024-01-27T09:01:41;20.07;;;14.37;;
17259;SDS011;8746;49.230;9.220;2024-01-27T09:04:07;17.00;;;13.63;;
17259;SDS011;8746;49.230;9.220;2024-01-27T09:06:32;20.83;;;14.97;;
17259;SDS011;8746;49.230;9.220;2024-01-27T09:08:58;19.97;;;14.73;;
17259;SDS011;8746;49.230;9.220;2024-01-27T09:11:23;19.50;;;14.07;;
17259;SDS011;8746;49.230;9.220;2024-01-27T09:13:49;20.07;;;15.50;;
17259;SDS011;8746;49.230;9.220;2024-01-27T09:16:17;21.03;;;17.13;;
17259;SDS011;8746;49.230;9.220;2024-01-27T09:18:42;22.40;;;17.53;;
17259;SDS011;8746;49.230;9.220;2024-01-27T09:21:08;16.37;;;13.83;;
17259;SDS011;8746;49.230;9.220;2024-01-27T09:23:34;15.07;;;12.53;;
17259;SDS011;8746;49.230;9.220;2024-01-27T09:25:59;18.50;;;12.57;;
17259;SDS011;8746;49.230;9.220;2024-01-27T09:28:25;15.60;;;12.37;;
17259;SDS011;8746;49.230;9.220;2024-01-27T09:30:50;15.10;;;11.70;;
17259;SDS011;8746;49.230;9.220;2024-01-27T09:33:16;15.20;;;11.97;;
17259;SDS011;8746;49.230;9.220;2024-01-27T09:35:44;15.73;;;12.67;;
17259;SDS011;8746;49.230;9.220;2024-01-27T09:38:10;13.50;;;12.10;;
17259;SDS011;8746;49.230;9.220;2024-01-27T09:40:37;16.07;;;13.67;;
17259;SDS011;8746;49.230;9.220;2024-01-27T09:43:03;19.83;;;13.90;;
17259;SDS011;8746;49.230;9.220;2024-01-27T09:45:29;13.67;;;11.43;;
17259;SDS011;8746;49.230;9.220;2024-01-27T09:47:57;16.07;;;12.70;;
17259;SDS011;8746;49.230;9.220;2024-01-27T09:50:25;16.63;;;11.63;;
17259;SDS011;8746;49.230;9.220;2024-01-27T09:52:51;13.10;;;11.30;;
17259;SDS011;8746;49.230;9.220;2024-01-27T09:55:16;12.33;;;10.40;;
17259;SDS011;8746;49.230;9.220;2024-01-27T09:57:42;12.87;;;10.77;;
17259;SDS011;8746;49.230;9.220;2024-01-27T10:00:10;12.53;;;9.60;;
17259;SDS011;8746;49.230;9.220;2024-01-27T10:02:38;10.00;;;9.00;;
17259;SDS011;8746;49.230;9.220;2024-01-27T10:05:05;9.23;;;8.20;;
17259;SDS011;8746;49.230;9.220;2024-01-27T10:07:33;9.27;;;7.83;;
17259;SDS011;8746;49.230;9.220;2024-01-27T10:09:58;10.60;;;8.00;;
17259;SDS011;8746;49.230;9.220;2024-01-27T10:12:24;7.77;;;6.90;;
17259;SDS011;8746;49.230;9.220;2024-01-27T10:14:51;8.67;;;7.17;;
17259;SDS011;8746;49.230;9.220;2024-01-27T10:17:24;9.83;;;7.27;;
17259;SDS011;8746;49.230;9.220;2024-01-27T10:20:02;10.43;;;6.73;;
17259;SDS011;8746;49.230;9.220;2024-01-27T10:22:36;10.17;;;8.03;;
17259;SDS011;8746;49.230;9.220;2024-01-27T10:25:08;8.50;;;7.23;;
17259;SDS011;8746;49.230;9.220;2024-01-27T10:27:37;8.03;;;6.67;;
17259;SDS011;8746;49.230;9.220;2024-01-27T10:30:03;10.33;;;6.77;;
17259;SDS011;8746;49.230;9.220;2024-01-27T10:32:29;8.13;;;6.53;;
17259;SDS011;8746;49.230;9.220;2024-01-27T10:35:07;7.03;;;6.33;;
17259;SDS011;8746;49.230;9.220;2024-01-27T10:37:38;8.93;;;7.33;;
17259;SDS011;8746;49.230;9.220;2024-01-27T10:40:05;10.23;;;7.93;;
17259;SDS011;8746;49.230;9.220;2024-01-27T10:42:36;9.43;;;7.40;;
17259;SDS011;8746;49.230;9.220;2024-01-27T10:45:02;9.00;;;7.40;;
17259;SDS011;8746;49.230;9.220;2024-01-27T10:47:29;7.73;;;5.93;;
17259;SDS011;8746;49.230;9.220;2024-01-27T10:49:56;7.60;;;6.17;;
17259;SDS011;8746;49.230;9.220;2024-01-27T10:52:23;8.73;;;6.10;;
17259;SDS011;8746;49.230;9.220;2024-01-27T10:55:00;8.77;;;5.10;;
17259;SDS011;8746;49.230;9.220;2024-01-27T10:57:28;11.87;;;5.83;;
17259;SDS011;8746;49.230;9.220;2024-01-27T10:59:55;8.07;;;5.30;;
17259;SDS011;8746;49.230;9.220;2024-01-27T11:02:22;6.87;;;5.00;;
17259;SDS011;8746;49.230;9.220;2024-01-27T11:04:48;8.37;;;5.43;;
17259;SDS011;8746;49.230;9.220;2024-01-27T11:07:14;7.23;;;5.60;;
17259;SDS011;8746;49.230;9.220;2024-01-27T11:09:42;6.93;;;5.30;;
17259;SDS011;8746;49.230;9.220;2024-01-27T11:12:08;9.47;;;5.33;;
17259;SDS011;8746;49.230;9.220;2024-01-27T11:14:34;9.57;;;5.87;;
17259;SDS011;8746;49.230;9.220;2024-01-27T11:17:00;9.87;;;6.00;;
17259;SDS011;8746;49.230;9.220;2024-01-27T11:19:26;8.50;;;6.27;;
17259;SDS011;8746;49.230;9.220;2024-01-27T11:22:04;7.63;;;5.73;;
17259;SDS011;8746;49.230;9.220;2024-01-27T11:24:29;8.83;;;5.13;;
17259;SDS011;8746;49.230;9.220;2024-01-27T11:27:05;11.03;;;5.03;;
17259;SDS011;8746;49.230;9.220;2024-01-27T11:29:31;9.03;;;4.20;;
17259;SDS011;8746;49.230;9.220;2024-01-27T11:31:59;7.83;;;4.80;;
17259;SDS011;8746;49.230;9.220;2024-01-27T11:34:26;8.70;;;5.03;;
17259;SDS011;8746;49.230;9.220;2024-01-27T11:36:52;7.57;;;4.97;;
17259;SDS011;8746;49.230;9.220;2024-01-27T11:39:28;10.97;;;3.30;;
17259;SDS011;8746;49.230;9.220;2024-01-27T11:42:04;7.00;;;3.70;;
17259;SDS011;8746;49.230;9.220;2024-01-27T11:44:30;7.60;;;3.90;;
17259;SDS011;8746;49.230;9.220;2024-01-27T11:46:58;10.33;;;4.03;;
17259;SDS011;8746;49.230;9.220;2024-01-27T11:49:24;8.13;;;4.37;;
17259;SDS011;8746;49.230;9.220;2024-01-27T11:51:49;7.20;;;4.33;;
17259;SDS011;8746;49.230;9.220;2024-01-27T11:54:15;6.07;;;3.83;;
17259;SDS011;8746;49.230;9.220;2024-01-27T11:56:40;8.67;;;4.10;;
17259;SDS011;8746;49.230;9.220;2024-01-27T11:59:05;9.93;;;3.97;;
17259;SDS011;8746;49.230;9.220;2024-01-27T12:01:30;9.37;;;3.97;;
17259;SDS011;8746;49.230;9.220;2024-01-27T12:03:56;9.57;;;3.83;;
17259;SDS011;8746;49.230;9.220;2024-01-27T12:06:22;6.23;;;3.93;;
17259;SDS011;8746;49.230;9.220;2024-01-27T12:08:48;10.73;;;4.20;;
17259;SDS011;8746;49.230;9.220;2024-01-27T12:11:14;7.90;;;3.80;;
17259;SDS011;8746;49.230;9.220;2024-01-27T12:13:40;11.70;;;4.57;;
17259;SDS011;8746;49.230;9.220;2024-01-27T12:16:06;8.57;;;4.23;;
17259;SDS011;8746;49.230;9.220;2024-01-27T12:18:32;7.50;;;3.73;;
17259;SDS011;8746;49.230;9.220;2024-01-27T12:20:57;8.43;;;3.40;;
17259;SDS011;8746;49.230;9.220;2024-01-27T12:23:23;10.37;;;3.80;;
17259;SDS011;8746;49.230;9.220;2024-01-27T12:25:55;5.43;;;3.50;;
17259;SDS011;8746;49.230;9.220;2024-01-27T12:28:21;8.03;;;4.00;;
17259;SDS011;8746;49.230;9.220;2024-01-27T12:30:51;8.23;;;3.80;;
17259;SDS011;8746;49.230;9.220;2024-01-27T12:33:17;7.27;;;4.07;;
17259;SDS011;8746;49.230;9.220;2024-01-27T12:35:47;8.00;;;4.10;;
17259;SDS011;8746;49.230;9.220;2024-01-27T12:38:12;7.33;;;3.60;;
17259;SDS011;8746;49.230;9.220;2024-01-27T12:40:37;8.13;;;3.67;;
17259;SDS011;8746;49.230;9.220;2024-01-27T12:43:03;6.97;;;3.63;;
17259;SDS011;8746;49.230;9.220;2024-01-27T12:45:28;8.70;;;3.73;;
17259;SDS011;8746;49.230;9.220;2024-01-27T12:47:54;6.93;;;3.10;;
17259;SDS011;8746;49.230;9.220;2024-01-27T12:50:20;9.83;;;3.53;;
17259;SDS011;8746;49.230;9.220;2024-01-27T12:52:45;10.40;;;3.93;;
17259;SDS011;8746;49.230;9.220;2024-01-27T12:55:10;9.03;;;3.60;;
17259;SDS011;8746;49.230;9.220;2024-01-27T12:57:36;6.67;;;3.10;;
17259;SDS011;8746;49.230;9.220;2024-01-27T13:00:01;5.90;;;3.50;;
17259;SDS011;8746;49.230;9.220;2024-01-27T13:02:34;6.77;;;3.17;;
17259;SDS011;8746;49.230;9.220;2024-01-27T13:05:00;7.57;;;3.30;;
17259;SDS011;8746;49.230;9.220;2024-01-27T13:07:25;6.00;;;3.10;;
17259;SDS011;8746;49.230;9.220;2024-01-27T13:09:51;8.30;;;3.37;;
17259;SDS011;8746;49.230;9.220;2024-01-27T13:12:16;5.43;;;3.10;;
17259;SDS011;8746;49.230;9.220;2024-01-27T13:14:42;6.87;;;3.40;;
17259;SDS011;8746;49.230;9.220;2024-01-27T13:17:07;10.03;;;2.93;;
17259;SDS011;8746;49.230;9.220;2024-01-27T13:19:33;4.23;;;2.80;;
17259;SDS011;8746;49.230;9.220;2024-01-27T13:21:58;6.93;;;3.00;;
17259;SDS011;8746;49.230;9.220;2024-01-27T13:24:23;4.53;;;2.80;;
17259;SDS011;8746;49.230;9.220;2024-01-27T13:26:50;5.10;;;3.10;;
17259;SDS011;8746;49.230;9.220;2024-01-27T13:29:16;8.47;;;3.10;;
17259;SDS011;8746;49.230;9.220;2024-01-27T13:31:42;9.70;;;3.33;;
17259;SDS011;8746;49.230;9.220;2024-01-27T13:34:07;8.80;;;3.00;;
17259;SDS011;8746;49.230;9.220;2024-01-27T13:36:32;5.23;;;2.60;;
17259;SDS011;8746;49.230;9.220;2024-01-27T13:38:59;7.33;;;2.40;;
17259;SDS011;8746;49.230;9.220;2024-01-27T13:41:24;5.20;;;3.10;;
17259;SDS011;8746;49.230;9.220;2024-01-27T13:43:50;6.40;;;2.63;;
17259;SDS011;8746;49.230;9.220;2024-01-27T13:46:16;8.10;;;3.07;;
17259;SDS011;8746;49.230;9.220;2024-01-27T13:48:41;7.83;;;2.77;;
17259;SDS011;8746;49.230;9.220;2024-01-27T13:51:07;7.17;;;2.40;;
17259;SDS011;8746;49.230;9.220;2024-01-27T13:53:33;8.10;;;2.57;;
17259;SDS011;8746;49.230;9.220;2024-01-27T13:55:58;7.77;;;3.20;;
17259;SDS011;8746;49.230;9.220;2024-01-27T13:58:25;6.17;;;2.80;;
17259;SDS011;8746;49.230;9.220;2024-01-27T14:00:51;7.63;;;2.87;;
17259;SDS011;8746;49.230;9.220;2024-01-27T14:03:17;5.57;;;2.30;;
17259;SDS011;8746;49.230;9.220;2024-01-27T14:05:42;6.83;;;2.10;;
17259;SDS011;8746;49.230;9.220;2024-01-27T14:08:08;9.67;;;2.33;;
17259;SDS011;8746;49.230;9.220;2024-01-27T14:10:35;6.17;;;2.13;;
17259;SDS011;8746;49.230;9.220;2024-01-27T14:13:01;8.23;;;2.73;;
17259;SDS011;8746;49.230;9.220;2024-01-27T14:15:29;4.80;;;2.30;;
17259;SDS011;8746;49.230;9.220;2024-01-27T14:17:55;3.87;;;1.90;;
17259;SDS011;8746;49.230;9.220;2024-01-27T14:20:20;3.97;;;1.77;;
17259;SDS011;8746;49.230;9.220;2024-01-27T14:22:46;5.23;;;2.03;;
17259;SDS011;8746;49.230;9.220;2024-01-27T14:25:11;4.40;;;1.97;;
17259;SDS011;8746;49.230;9.220;2024-01-27T14:27:37;3.43;;;1.73;;
17259;SDS011;8746;49.230;9.220;2024-01-27T14:30:02;7.03;;;1.90;;
17259;SDS011;8746;49.230;9.220;2024-01-27T14:32:28;10.80;;;2.30;;
17259;SDS011;8746;49.230;9.220;2024-01-27T14:34:53;3.90;;;1.90;;
17259;SDS011;8746;49.230;9.220;2024-01-27T14:37:18;5.53;;;2.10;;
17259;SDS011;8746;49.230;9.220;2024-01-27T14:39:44;5.13;;;1.90;;
17259;SDS011;8746;49.230;9.220;2024-01-27T14:42:13;4.80;;;1.83;;
17259;SDS011;8746;49.230;9.220;2024-01-27T14:44:39;5.00;;;2.00;;